createdAt,value
2023-05-04T00:00:26.918Z,95655.00
2023-05-04T00:01:26.904Z,95653.00
2023-05-04T00:02:26.950Z,95655.00
2023-05-04T00:03:27.057Z,95645.00
2023-05-04T00:04:26.994Z,95645.00
2023-05-04T00:05:26.984Z,95643.00
2023-05-04T00:06:27.981Z,95645.00
2023-05-04T00:07:27.034Z,95645.00
2023-05-04T00:08:27.076Z,95645.00
2023-05-04T00:09:27.126Z,95643.00
2023-05-04T00:10:27.127Z,95643.00
2023-05-04T00:11:27.166Z,95643.00
2023-05-04T00:12:27.198Z,95643.00
2023-05-04T00:13:27.260Z,95643.00
2023-05-04T00:14:27.268Z,95645.00
2023-05-04T00:15:27.301Z,95645.00
2023-05-04T00:16:27.388Z,95645.00
2023-05-04T00:17:27.429Z,95645.00
2023-05-04T00:18:27.414Z,95653.00
2023-05-04T00:19:27.461Z,95653.00
2023-05-04T00:20:27.473Z,95653.00
2023-05-04T00:21:27.505Z,95653.00
2023-05-04T00:22:27.547Z,95653.00
2023-05-04T00:23:27.575Z,95653.00
2023-05-04T00:24:27.624Z,95653.00
2023-05-04T00:25:27.648Z,95645.00
2023-05-04T00:26:27.685Z,95645.00
2023-05-04T00:27:27.722Z,95643.00
2023-05-04T00:28:27.768Z,95643.00
2023-05-04T00:29:27.909Z,95641.00
2023-05-04T00:30:27.839Z,95641.00
2023-05-04T00:31:27.896Z,95643.00
2023-05-04T00:32:27.933Z,95641.00
2023-05-04T00:33:27.957Z,95639.00
2023-05-04T00:34:27.991Z,95639.00
2023-05-04T00:35:28.047Z,95639.00
2023-05-04T00:36:28.075Z,95637.00
2023-05-04T00:37:28.114Z,95637.00
2023-05-04T00:38:28.146Z,95639.00
2023-05-04T00:39:28.191Z,95637.00
2023-05-04T00:40:28.235Z,95633.00
2023-05-04T00:41:28.279Z,95633.00
2023-05-04T00:42:28.305Z,95633.00
2023-05-04T00:43:28.340Z,95635.00
2023-05-04T00:44:28.380Z,95635.00
2023-05-04T00:45:28.441Z,95633.00
2023-05-04T00:46:28.467Z,95633.00
2023-05-04T00:47:28.558Z,95631.00
2023-05-04T00:48:28.509Z,95633.00
2023-05-04T00:49:28.537Z,95633.00
2023-05-04T00:50:28.581Z,95637.00
2023-05-04T00:51:28.622Z,95635.00
2023-05-04T00:52:28.694Z,95633.00
2023-05-04T00:53:28.696Z,95633.00
2023-05-04T00:54:28.728Z,95633.00
2023-05-04T00:55:28.769Z,95633.00
2023-05-04T00:56:28.818Z,95633.00
2023-05-04T00:57:28.845Z,95633.00
2023-05-04T00:58:28.881Z,95633.00
2023-05-04T00:59:28.922Z,95633.00
2023-05-04T01:00:28.973Z,95631.00
2023-05-04T01:01:29.080Z,95631.00
2023-05-04T01:02:29.098Z,95629.00
2023-05-04T01:03:29.177Z,95629.00
2023-05-04T01:04:29.120Z,95629.00
2023-05-04T01:05:29.164Z,95627.00
2023-05-04T01:06:29.205Z,95627.00
2023-05-04T01:07:29.242Z,95629.00
2023-05-04T01:08:29.279Z,95629.00
2023-05-04T01:09:29.312Z,95629.00
2023-05-04T01:10:29.354Z,95627.00
2023-05-04T01:11:29.394Z,95627.00
2023-05-04T01:12:29.450Z,95629.00
2023-05-04T01:13:29.479Z,95627.00
2023-05-04T01:14:29.504Z,95627.00
2023-05-04T01:15:29.618Z,95627.00
2023-05-04T01:16:29.621Z,95627.00
2023-05-04T01:17:29.700Z,95627.00
2023-05-04T01:18:29.660Z,95627.00
2023-05-04T01:19:29.724Z,95627.00
2023-05-04T01:20:29.788Z,95627.00
2023-05-04T01:21:29.792Z,95629.00
2023-05-04T01:22:29.829Z,95629.00
2023-05-04T01:23:29.915Z,95631.00
2023-05-04T01:24:29.901Z,95629.00
2023-05-04T01:25:29.947Z,95631.00
2023-05-04T01:26:29.982Z,95629.00
2023-05-04T01:27:30.035Z,95631.00
2023-05-04T01:28:30.072Z,95631.00
2023-05-04T01:29:30.143Z,95629.00
2023-05-04T01:30:30.151Z,95631.00
2023-05-04T01:31:30.236Z,95629.00
2023-05-04T01:32:30.262Z,95627.00
2023-05-04T01:33:30.311Z,95633.00
2023-05-04T01:34:30.326Z,95631.00
2023-05-04T01:35:30.401Z,95631.00
2023-05-04T01:36:30.436Z,95633.00
2023-05-04T01:37:30.449Z,95635.00
2023-05-04T01:38:30.488Z,95635.00
2023-05-04T01:39:30.531Z,95637.00
2023-05-04T01:40:30.588Z,95635.00
2023-05-04T01:41:30.617Z,95635.00
2023-05-04T01:42:30.655Z,95637.00
2023-05-04T01:43:30.696Z,95637.00
2023-05-04T01:44:30.725Z,95637.00
2023-05-04T01:45:30.821Z,95639.00
2023-05-04T01:46:30.842Z,95635.00
2023-05-04T01:47:30.895Z,95635.00
2023-05-04T01:48:30.911Z,95637.00
2023-05-04T01:49:30.991Z,95635.00
2023-05-04T01:50:30.981Z,95635.00
2023-05-04T01:51:31.021Z,95637.00
2023-05-04T01:52:31.053Z,95637.00
2023-05-04T01:53:31.105Z,95637.00
2023-05-04T01:54:31.168Z,95639.00
2023-05-04T01:55:31.190Z,95639.00
2023-05-04T01:56:31.229Z,95637.00
2023-05-04T01:57:31.282Z,95637.00
2023-05-04T01:58:31.315Z,95637.00
2023-05-04T01:59:31.363Z,95639.00
2023-05-04T02:00:31.407Z,95639.00
2023-05-04T02:01:31.496Z,95639.00
2023-05-04T02:02:31.578Z,95639.00
2023-05-04T02:03:31.622Z,95639.00
2023-05-04T02:04:31.563Z,95639.00
2023-05-04T02:05:31.629Z,95633.00
2023-05-04T02:06:31.667Z,95641.00
2023-05-04T02:07:31.695Z,95639.00
2023-05-04T02:08:31.742Z,95639.00
2023-05-04T02:09:31.796Z,95639.00
2023-05-04T02:10:31.837Z,95633.00
2023-05-04T02:11:31.869Z,95633.00
2023-05-04T02:12:31.946Z,95631.00
2023-05-04T02:13:31.967Z,95629.00
2023-05-04T02:14:32.011Z,95627.00
2023-05-04T02:15:32.051Z,95627.00
2023-05-04T02:16:32.111Z,95625.00
2023-05-04T02:17:32.169Z,95623.00
2023-05-04T02:18:32.191Z,95627.00
2023-05-04T02:19:32.232Z,95627.00
2023-05-04T02:20:32.278Z,95627.00
2023-05-04T02:21:32.355Z,95625.00
2023-05-04T02:22:32.378Z,95627.00
2023-05-04T02:23:32.426Z,95625.00
2023-05-04T02:24:32.463Z,95627.00
2023-05-04T02:25:32.507Z,95627.00
2023-05-04T02:26:32.575Z,95627.00
2023-05-04T02:27:32.611Z,95629.00
2023-05-04T02:28:32.644Z,95629.00
2023-05-04T02:29:32.689Z,95629.00
2023-05-04T02:30:32.740Z,95629.00
2023-05-04T02:31:32.872Z,95629.00
2023-05-04T02:32:32.878Z,95633.00
2023-05-04T02:33:32.843Z,95631.00
2023-05-04T02:34:32.868Z,95633.00
2023-05-04T02:35:32.877Z,95633.00
2023-05-04T02:36:32.902Z,95637.00
2023-05-04T02:37:32.999Z,95637.00
2023-05-04T02:38:32.931Z,95637.00
2023-05-04T02:39:32.946Z,95639.00
2023-05-04T02:40:32.960Z,95641.00
2023-05-04T02:41:32.970Z,95641.00
2023-05-04T02:42:33.045Z,95641.00
2023-05-04T02:43:33.008Z,95643.00
2023-05-04T02:44:33.026Z,95641.00
2023-05-04T02:45:33.129Z,95641.00
2023-05-04T02:46:33.063Z,95643.00
2023-05-04T02:47:33.091Z,95643.00
2023-05-04T02:48:33.098Z,95643.00
2023-05-04T02:49:33.106Z,95645.00
2023-05-04T02:50:33.117Z,95645.00
2023-05-04T02:51:33.133Z,95643.00
2023-05-04T02:52:33.149Z,95645.00
2023-05-04T02:53:33.297Z,95653.00
2023-05-04T02:54:33.199Z,95653.00
2023-05-04T02:55:33.236Z,95645.00
2023-05-04T02:56:33.284Z,95645.00
2023-05-04T02:57:33.328Z,95653.00
2023-05-04T02:58:33.380Z,95643.00
2023-05-04T02:59:33.431Z,95655.00
2023-05-04T03:00:33.477Z,95655.00
2023-05-04T03:01:35.018Z,95653.00
2023-05-04T03:02:33.657Z,95653.00
2023-05-04T03:03:33.665Z,95653.00
2023-05-04T03:04:33.779Z,95653.00
2023-05-04T03:05:33.765Z,95645.00
2023-05-04T03:06:33.805Z,95645.00
2023-05-04T03:07:33.858Z,95645.00
2023-05-04T03:08:33.904Z,95653.00
2023-05-04T03:09:33.981Z,95653.00
2023-05-04T03:10:34.005Z,95655.00
2023-05-04T03:11:34.052Z,95655.00
2023-05-04T03:12:34.123Z,95657.00
2023-05-04T03:13:34.149Z,95655.00
2023-05-04T03:14:34.200Z,95655.00
2023-05-04T03:15:34.270Z,95655.00
2023-05-04T03:16:34.366Z,95653.00
2023-05-04T03:17:34.424Z,95655.00
2023-05-04T03:18:58.131Z,95653.00
2023-05-04T03:19:34.398Z,95655.00
2023-05-04T03:20:34.385Z,95657.00
2023-05-04T03:21:34.374Z,95655.00
2023-05-04T03:22:34.382Z,95655.00
2023-05-04T03:23:34.366Z,95657.00
2023-05-04T03:24:34.357Z,95657.00
2023-05-04T03:25:34.409Z,95659.00
2023-05-04T03:26:34.345Z,95659.00
2023-05-04T03:27:34.339Z,95659.00
2023-05-04T03:28:34.323Z,95661.00
2023-05-04T03:29:34.318Z,95657.00
2023-05-04T03:30:34.306Z,95657.00
2023-05-04T03:31:34.318Z,95655.00
2023-05-04T03:32:34.342Z,95655.00
2023-05-04T03:33:34.281Z,95655.00
2023-05-04T03:34:34.269Z,95653.00
2023-05-04T03:35:34.273Z,95653.00
2023-05-04T03:36:34.264Z,95653.00
2023-05-04T03:37:34.256Z,95653.00
2023-05-04T03:38:34.249Z,95645.00
2023-05-04T03:39:34.239Z,95643.00
2023-05-04T03:40:34.234Z,95643.00
2023-05-04T03:41:34.269Z,95645.00
2023-05-04T03:42:34.227Z,95645.00
2023-05-04T03:43:34.224Z,95645.00
2023-05-04T03:44:34.213Z,95645.00
2023-05-04T03:45:34.200Z,95645.00
2023-05-04T03:46:34.249Z,95645.00
2023-05-04T03:47:34.192Z,95653.00
2023-05-04T03:48:34.208Z,95645.00
2023-05-04T03:49:34.274Z,95653.00
2023-05-04T03:50:34.315Z,95655.00
2023-05-04T03:51:34.384Z,95659.00
2023-05-04T03:52:34.431Z,95657.00
2023-05-04T03:53:34.519Z,95659.00
2023-05-04T03:54:34.507Z,95657.00
2023-05-04T03:55:34.557Z,95659.00
2023-05-04T03:56:34.611Z,95661.00
2023-05-04T03:57:34.694Z,95659.00
2023-05-04T03:58:34.718Z,95659.00
2023-05-04T03:59:34.803Z,95659.00
2023-05-04T04:00:34.814Z,95659.00
2023-05-04T04:01:34.865Z,95661.00
2023-05-04T04:02:35.008Z,95659.00
2023-05-04T04:03:34.992Z,95661.00
2023-05-04T04:04:35.050Z,95663.00
2023-05-04T04:05:35.072Z,95661.00
2023-05-04T04:06:35.133Z,95659.00
2023-05-04T04:07:35.168Z,95661.00
2023-05-04T04:08:35.226Z,95659.00
2023-05-04T04:09:35.285Z,95661.00
2023-05-04T04:10:35.330Z,95659.00
2023-05-04T04:11:35.383Z,95659.00
2023-05-04T04:12:35.507Z,95659.00
2023-05-04T04:13:35.506Z,95661.00
2023-05-04T04:14:35.539Z,95657.00
2023-05-04T04:15:35.591Z,95659.00
2023-05-04T04:16:35.784Z,95663.00
2023-05-04T04:17:35.733Z,95661.00
2023-05-04T04:18:35.751Z,95663.00
2023-05-04T04:19:35.838Z,95661.00
2023-05-04T04:20:35.862Z,95663.00
2023-05-04T04:21:35.929Z,95663.00
2023-05-04T04:22:35.973Z,95661.00
2023-05-04T04:23:36.026Z,95663.00
2023-05-04T04:24:36.094Z,95667.00
2023-05-04T04:25:36.136Z,95665.00
2023-05-04T04:26:36.196Z,95667.00
2023-05-04T04:27:36.255Z,95669.00
2023-05-04T04:28:36.291Z,95667.00
2023-05-04T04:29:36.398Z,95669.00
2023-05-04T04:30:36.418Z,95669.00
2023-05-04T04:31:36.501Z,95669.00
2023-05-04T04:32:36.547Z,95669.00
2023-05-04T04:33:36.582Z,95669.00
2023-05-04T04:34:36.655Z,95667.00
2023-05-04T04:35:36.689Z,95669.00
2023-05-04T04:36:36.765Z,95671.00
2023-05-04T04:37:36.818Z,95671.00
2023-05-04T04:38:36.861Z,95669.00
2023-05-04T04:39:36.960Z,95671.00
2023-05-04T04:40:36.973Z,95669.00
2023-05-04T04:41:37.026Z,95665.00
2023-05-04T04:42:37.088Z,95667.00
2023-05-04T04:43:37.149Z,95669.00
2023-05-04T04:44:37.203Z,95667.00
2023-05-04T04:45:37.318Z,95671.00
2023-05-04T04:46:37.358Z,95673.00
2023-05-04T04:47:37.410Z,95673.00
2023-05-04T04:48:37.452Z,95673.00
2023-05-04T04:49:37.518Z,95671.00
2023-05-04T04:50:37.571Z,95673.00
2023-05-04T04:51:37.654Z,95675.00
2023-05-04T04:52:37.689Z,95673.00
2023-05-04T04:53:37.744Z,95671.00
2023-05-04T04:54:37.793Z,95671.00
2023-05-04T04:55:37.849Z,95671.00
2023-05-04T04:56:37.884Z,95673.00
2023-05-04T04:57:37.947Z,95675.00
2023-05-04T04:58:37.986Z,95673.00
2023-05-04T04:59:38.075Z,95673.00
2023-05-04T05:00:38.113Z,95673.00
2023-05-04T05:01:38.219Z,95675.00
2023-05-04T05:02:38.401Z,95675.00
2023-05-04T05:03:38.280Z,95675.00
2023-05-04T05:04:38.395Z,95675.00
2023-05-04T05:05:38.390Z,95673.00
2023-05-04T05:06:38.444Z,95675.00
2023-05-04T05:07:38.509Z,95676.00
2023-05-04T05:08:38.564Z,95675.00
2023-05-04T05:09:38.616Z,95673.00
2023-05-04T05:10:38.686Z,95675.00
2023-05-04T05:11:38.753Z,95673.00
2023-05-04T05:12:38.848Z,95675.00
2023-05-04T05:13:38.858Z,95675.00
2023-05-04T05:14:38.915Z,95671.00
2023-05-04T05:15:38.972Z,95673.00
2023-05-04T05:16:39.068Z,95669.00
2023-05-04T05:17:39.132Z,95669.00
2023-05-04T05:18:39.108Z,95671.00
2023-05-04T05:19:40.988Z,95673.00
2023-05-04T05:20:39.144Z,95673.00
2023-05-04T05:21:39.130Z,95673.00
2023-05-04T05:22:39.138Z,95675.00
2023-05-04T05:23:39.124Z,95675.00
2023-05-04T05:24:39.142Z,95673.00
2023-05-04T05:25:39.336Z,95675.00
2023-05-04T05:26:39.087Z,95673.00
2023-05-04T05:27:39.675Z,95673.00
2023-05-04T05:28:39.100Z,95675.00
2023-05-04T05:29:39.055Z,95673.00
2023-05-04T05:30:39.099Z,95675.00
2023-05-04T05:31:39.041Z,95675.00
2023-05-04T05:32:39.212Z,95675.00
2023-05-04T05:33:39.051Z,95673.00
2023-05-04T05:34:39.017Z,95675.00
2023-05-04T05:35:38.995Z,95675.00
2023-05-04T05:36:39.013Z,95673.00
2023-05-04T05:37:39.135Z,95675.00
2023-05-04T05:38:38.984Z,95673.00
2023-05-04T05:39:38.959Z,95673.00
2023-05-04T05:40:38.955Z,95675.00
2023-05-04T05:41:38.945Z,95673.00
2023-05-04T05:42:38.940Z,95675.00
2023-05-04T05:43:39.187Z,95673.00
2023-05-04T05:44:38.979Z,95673.00
2023-05-04T05:45:39.004Z,95675.00
2023-05-04T05:46:39.172Z,95673.00
2023-05-04T05:47:39.174Z,95675.00
2023-05-04T05:48:39.632Z,95669.00
2023-05-04T05:49:42.180Z,95667.00
2023-05-04T05:50:39.208Z,95669.00
2023-05-04T05:51:39.244Z,95665.00
2023-05-04T05:52:39.639Z,95669.00
2023-05-04T05:53:39.636Z,95671.00
2023-05-04T05:54:39.648Z,95673.00
2023-05-04T05:55:39.639Z,95667.00
2023-05-04T05:56:42.757Z,95665.00
2023-05-04T05:57:42.664Z,95667.00
2023-05-04T05:58:39.451Z,95665.00
2023-05-04T05:59:39.455Z,95667.00
2023-05-04T06:00:39.617Z,95669.00
2023-05-04T06:01:39.453Z,95667.00
2023-05-04T06:02:47.134Z,95663.00
2023-05-04T06:03:42.810Z,95663.00
2023-05-04T06:06:46.823Z,95657.00
2023-05-04T06:07:42.611Z,95657.00
2023-05-04T06:08:46.758Z,95661.00
2023-05-04T06:09:39.351Z,95659.00
2023-05-04T06:10:39.337Z,95657.00
2023-05-04T06:11:39.339Z,95655.00
2023-05-04T06:12:39.669Z,95655.00
2023-05-04T06:13:39.317Z,95653.00
2023-05-04T06:14:39.310Z,95643.00
2023-05-04T06:15:39.317Z,95645.00
2023-05-04T06:16:39.379Z,95643.00
2023-05-04T06:17:39.686Z,95643.00
2023-05-04T06:18:39.299Z,95641.00
2023-05-04T06:19:42.512Z,95641.00
2023-05-04T06:20:39.262Z,95643.00
2023-05-04T06:21:39.270Z,95639.00
2023-05-04T06:22:39.666Z,95639.00
2023-05-04T06:23:39.233Z,95643.00
2023-05-04T06:24:39.222Z,95641.00
2023-05-04T06:25:39.209Z,95641.00
2023-05-04T06:26:39.201Z,95639.00
2023-05-04T06:27:39.198Z,95639.00
2023-05-04T06:28:39.195Z,95637.00
2023-05-04T06:29:39.228Z,95633.00
2023-05-04T06:30:39.174Z,95635.00
2023-05-04T06:31:39.265Z,95635.00
2023-05-04T06:32:39.222Z,95635.00
2023-05-04T06:33:39.163Z,95633.00
2023-05-04T06:34:39.138Z,95633.00
2023-05-04T06:35:39.142Z,95631.00
2023-05-04T06:36:39.141Z,95633.00
2023-05-04T06:37:40.138Z,95629.00
2023-05-04T06:38:42.404Z,95629.00
2023-05-04T06:39:39.124Z,95629.00
2023-05-04T06:40:39.132Z,95629.00
2023-05-04T06:41:39.167Z,95627.00
2023-05-04T06:42:39.111Z,95627.00
2023-05-04T06:43:39.129Z,95627.00
2023-05-04T06:44:39.084Z,95627.00
2023-05-04T06:45:39.299Z,95627.00
2023-05-04T06:46:39.062Z,95627.00
2023-05-04T06:47:39.091Z,95627.00
2023-05-04T06:48:39.107Z,95627.00
2023-05-04T06:49:39.050Z,95627.00
2023-05-04T06:50:39.197Z,95627.00
2023-05-04T06:51:39.057Z,95627.00
2023-05-04T06:52:39.068Z,95625.00
2023-05-04T06:53:39.053Z,95625.00
2023-05-04T06:54:40.269Z,95627.00
2023-05-04T06:55:39.148Z,95625.00
2023-05-04T06:56:39.403Z,95623.00
2023-05-04T06:57:39.038Z,95623.00
2023-05-04T06:58:40.092Z,95622.00
2023-05-04T06:59:39.172Z,95620.00
2023-05-04T07:00:39.273Z,95618.00
2023-05-04T07:01:39.736Z,95620.00
2023-05-04T07:02:39.359Z,95618.00
2023-05-04T07:03:39.468Z,95618.00
2023-05-04T07:04:39.451Z,95614.00
2023-05-04T07:05:39.522Z,95614.00
2023-05-04T07:06:39.553Z,95612.00
2023-05-04T07:07:39.600Z,95612.00
2023-05-04T07:08:40.659Z,95610.00
2023-05-04T07:09:39.713Z,95610.00
2023-05-04T07:10:39.770Z,95614.00
2023-05-04T07:11:39.780Z,95612.00
2023-05-04T07:12:39.876Z,95610.00
2023-05-04T07:13:39.838Z,95608.00
2023-05-04T07:14:39.881Z,95606.00
2023-05-04T07:15:39.890Z,95608.00
2023-05-04T07:16:40.079Z,95608.00
2023-05-04T07:17:40.220Z,95606.00
2023-05-04T07:18:39.980Z,95606.00
2023-05-04T07:19:40.007Z,95606.00
2023-05-04T07:20:40.036Z,95604.00
2023-05-04T07:21:40.072Z,95602.00
2023-05-04T07:22:40.080Z,95602.00
2023-05-04T07:23:40.096Z,95602.00
2023-05-04T07:24:40.117Z,95600.00
2023-05-04T07:25:40.480Z,95602.00
2023-05-04T07:26:40.180Z,95600.00
2023-05-04T07:27:40.220Z,95600.00
2023-05-04T07:28:40.301Z,95602.00
2023-05-04T07:29:40.251Z,95596.00
2023-05-04T07:30:40.288Z,95598.00
2023-05-04T07:31:40.325Z,95598.00
2023-05-04T07:32:40.355Z,95592.00
2023-05-04T07:33:40.748Z,95592.00
2023-05-04T07:34:45.643Z,95590.00
2023-05-04T07:35:56.057Z,95588.00
2023-05-04T07:36:42.026Z,95588.00
2023-05-04T07:37:40.649Z,95586.00
2023-05-04T07:38:40.370Z,95586.00
2023-05-04T07:39:40.339Z,95586.00
2023-05-04T07:40:40.280Z,95584.00
2023-05-04T07:41:40.686Z,95582.00
2023-05-04T07:42:41.708Z,95582.00
2023-05-04T07:43:40.293Z,95580.00
2023-05-04T07:44:43.911Z,95580.00
2023-05-04T07:45:40.295Z,95576.00
2023-05-04T07:46:43.573Z,95576.00
2023-05-04T07:47:40.716Z,95576.00
2023-05-04T07:48:40.742Z,95572.00
2023-05-04T07:49:40.255Z,95570.00
2023-05-04T07:50:40.254Z,95568.00
2023-05-04T07:51:40.239Z,95567.00
2023-05-04T07:52:40.237Z,95567.00
2023-05-04T07:53:40.665Z,95568.00
2023-05-04T07:54:40.237Z,95561.00
2023-05-04T07:55:40.349Z,95559.00
2023-05-04T07:56:41.234Z,95559.00
2023-05-04T07:57:40.804Z,95559.00
2023-05-04T07:58:40.539Z,95555.00
2023-05-04T07:59:40.234Z,95555.00
2023-05-04T08:00:40.199Z,95553.00
2023-05-04T08:01:41.946Z,95551.00
2023-05-04T08:02:40.765Z,95549.00
2023-05-04T08:03:40.193Z,95553.00
2023-05-04T08:04:40.338Z,95551.00
2023-05-04T08:05:40.425Z,95549.00
2023-05-04T08:06:40.268Z,95547.00
2023-05-04T08:07:40.191Z,95545.00
2023-05-04T08:08:40.170Z,95545.00
2023-05-04T08:09:40.218Z,95545.00
2023-05-04T08:10:40.115Z,95541.00
2023-05-04T08:11:40.156Z,95543.00
2023-05-04T08:12:40.275Z,95539.00
2023-05-04T08:13:41.688Z,95537.00
2023-05-04T08:14:40.377Z,95539.00
2023-05-04T08:15:40.344Z,95535.00
2023-05-04T08:16:40.699Z,95533.00
2023-05-04T08:17:40.401Z,95535.00
2023-05-04T08:18:41.481Z,95535.00
2023-05-04T08:19:40.505Z,95535.00
2023-05-04T08:20:40.546Z,95535.00
2023-05-04T08:21:40.854Z,95533.00
2023-05-04T08:22:40.632Z,95531.00
2023-05-04T08:23:40.623Z,95533.00
2023-05-04T08:24:40.722Z,95531.00
2023-05-04T08:25:40.739Z,95525.00
2023-05-04T08:26:42.448Z,95525.00
2023-05-04T08:27:40.838Z,95527.00
2023-05-04T08:28:41.441Z,95527.00
2023-05-04T08:29:48.255Z,95527.00
2023-05-04T08:30:41.698Z,95525.00
2023-05-04T08:31:41.033Z,95525.00
2023-05-04T08:32:40.784Z,95527.00
2023-05-04T08:33:40.917Z,95527.00
2023-05-04T08:34:41.714Z,95523.00
2023-05-04T08:35:41.055Z,95523.00
2023-05-04T08:36:41.608Z,95523.00
2023-05-04T08:37:40.719Z,95521.00
2023-05-04T08:38:40.621Z,95520.00
2023-05-04T08:39:42.229Z,95518.00
2023-05-04T08:40:41.637Z,95518.00
2023-05-04T08:41:41.588Z,95514.00
2023-05-04T08:42:40.582Z,95514.00
2023-05-04T08:43:47.969Z,95514.00
2023-05-04T08:44:42.096Z,95514.00
2023-05-04T08:45:40.628Z,95512.00
2023-05-04T08:46:41.232Z,95508.00
2023-05-04T08:47:56.185Z,95508.00
2023-05-04T08:48:40.523Z,95510.00
2023-05-04T08:49:40.684Z,95510.00
2023-05-04T08:50:40.490Z,95512.00
2023-05-04T08:51:40.440Z,95508.00
2023-05-04T08:52:40.759Z,95504.00
2023-05-04T08:53:41.883Z,95504.00
2023-05-04T08:54:40.461Z,95502.00
2023-05-04T08:55:40.472Z,95502.00
2023-05-04T08:56:40.536Z,95504.00
2023-05-04T08:57:40.689Z,95502.00
2023-05-04T08:58:40.643Z,95500.00
2023-05-04T08:59:40.694Z,95502.00
2023-05-04T09:00:40.796Z,95504.00
2023-05-04T09:01:40.867Z,95500.00
2023-05-04T09:02:41.312Z,95500.00
2023-05-04T09:03:41.026Z,95496.00
2023-05-04T09:04:40.896Z,95498.00
2023-05-04T09:05:40.936Z,95498.00
2023-05-04T09:06:40.958Z,95496.00
2023-05-04T09:07:40.982Z,95494.00
2023-05-04T09:08:41.011Z,95494.00
2023-05-04T09:09:41.045Z,95494.00
2023-05-04T09:10:41.210Z,95490.00
2023-05-04T09:11:41.094Z,95492.00
2023-05-04T09:12:41.154Z,95490.00
2023-05-04T09:13:41.137Z,95484.00
2023-05-04T09:15:12.954Z,95484.00
2023-05-04T09:15:41.142Z,95486.00
2023-05-04T09:16:41.149Z,95484.00
2023-05-04T09:17:50.848Z,95482.00
2023-05-04T09:18:41.233Z,95480.00
2023-05-04T09:19:41.096Z,95482.00
2023-05-04T09:20:41.078Z,95482.00
2023-05-04T09:21:41.069Z,95478.00
2023-05-04T09:22:41.439Z,95478.00
2023-05-04T09:23:41.322Z,95476.00
2023-05-04T09:24:41.152Z,95476.00
2023-05-04T09:25:41.007Z,95474.00
2023-05-04T09:26:42.009Z,95474.00
2023-05-04T09:27:41.142Z,95474.00
2023-05-04T09:28:44.440Z,95471.00
2023-05-04T09:29:40.972Z,95474.00
2023-05-04T09:30:40.965Z,95471.00
2023-05-04T09:31:41.023Z,95471.00
2023-05-04T09:32:40.974Z,95471.00
2023-05-04T09:33:44.438Z,95471.00
2023-05-04T09:34:40.908Z,95471.00
2023-05-04T09:35:40.902Z,95471.00
2023-05-04T09:36:40.889Z,95469.00
2023-05-04T09:37:48.276Z,95467.00
2023-05-04T09:38:41.249Z,95467.00
2023-05-04T09:39:48.636Z,95467.00
2023-05-04T09:40:40.877Z,95467.00
2023-05-04T09:41:41.800Z,95467.00
2023-05-04T09:42:40.798Z,95467.00
2023-05-04T09:43:40.774Z,95469.00
2023-05-04T09:44:41.209Z,95465.00
2023-05-04T09:45:40.721Z,95463.00
2023-05-04T09:46:40.902Z,95461.00
2023-05-04T09:47:40.779Z,95459.00
2023-05-04T09:48:40.678Z,95459.00
2023-05-04T09:49:40.736Z,95457.00
2023-05-04T09:50:40.647Z,95457.00
2023-05-04T09:51:40.699Z,95453.00
2023-05-04T09:52:40.697Z,95451.00
2023-05-04T09:53:40.710Z,95449.00
2023-05-04T09:54:40.762Z,95449.00
2023-05-04T09:55:40.774Z,95445.00
2023-05-04T09:56:40.804Z,95449.00
2023-05-04T09:57:40.858Z,95445.00
2023-05-04T09:58:41.229Z,95447.00
2023-05-04T09:59:40.884Z,95441.00
2023-05-04T10:00:40.917Z,95443.00
2023-05-04T10:01:42.244Z,95441.00
2023-05-04T10:02:41.010Z,95439.00
2023-05-04T10:03:41.264Z,95437.00
2023-05-04T10:05:12.798Z,95435.00
2023-05-04T10:05:40.936Z,95433.00
2023-05-04T10:06:40.832Z,95431.00
2023-05-04T10:07:41.804Z,95431.00
2023-05-04T10:08:41.261Z,95429.00
2023-05-04T10:09:40.762Z,95427.00
2023-05-04T10:10:41.728Z,95423.00
2023-05-04T10:11:40.736Z,95421.00
2023-05-04T10:12:40.704Z,95421.00
2023-05-04T10:13:40.703Z,95418.00
2023-05-04T10:14:40.634Z,95418.00
2023-05-04T10:15:40.624Z,95416.00
2023-05-04T10:16:40.582Z,95414.00
2023-05-04T10:17:40.568Z,95416.00
2023-05-04T10:18:40.716Z,95414.00
2023-05-04T10:19:40.502Z,95410.00
2023-05-04T10:20:40.500Z,95408.00
2023-05-04T10:21:40.482Z,95408.00
2023-05-04T10:22:41.231Z,95406.00
2023-05-04T10:23:40.717Z,95404.00
2023-05-04T10:24:40.569Z,95402.00
2023-05-04T10:25:40.613Z,95400.00
2023-05-04T10:26:40.725Z,95396.00
2023-05-04T10:27:40.764Z,95398.00
2023-05-04T10:28:40.729Z,95396.00
2023-05-04T10:29:40.731Z,95386.00
2023-05-04T10:30:40.763Z,95388.00
2023-05-04T10:31:40.845Z,95388.00
2023-05-04T10:32:40.888Z,95384.00
2023-05-04T10:33:40.913Z,95384.00
2023-05-04T10:34:41.216Z,95380.00
2023-05-04T10:35:40.933Z,95380.00
2023-05-04T10:36:41.024Z,95376.00
2023-05-04T10:37:41.222Z,95372.00
2023-05-04T10:38:41.222Z,95369.00
2023-05-04T10:39:41.306Z,95369.00
2023-05-04T10:40:41.089Z,95367.00
2023-05-04T10:41:41.130Z,95363.00
2023-05-04T10:42:41.161Z,95363.00
2023-05-04T10:43:41.202Z,95361.00
2023-05-04T10:44:41.723Z,95361.00
2023-05-04T10:45:41.294Z,95359.00
2023-05-04T10:46:41.288Z,95357.00
2023-05-04T10:47:42.301Z,95357.00
2023-05-04T10:48:41.323Z,95355.00
2023-05-04T10:49:41.730Z,95353.00
2023-05-04T10:50:41.431Z,95351.00
2023-05-04T10:51:49.119Z,95349.00
2023-05-04T10:52:41.454Z,95345.00
2023-05-04T10:53:41.413Z,95341.00
2023-05-04T10:54:41.755Z,95341.00
2023-05-04T10:55:41.370Z,95345.00
2023-05-04T10:56:41.344Z,95343.00
2023-05-04T10:57:41.329Z,95341.00
2023-05-04T10:58:41.312Z,95339.00
2023-05-04T10:59:41.753Z,95335.00
2023-05-04T11:00:41.265Z,95331.00
2023-05-04T11:01:41.746Z,95327.00
2023-05-04T11:02:41.811Z,95327.00
2023-05-04T11:03:41.339Z,95329.00
2023-05-04T11:04:41.195Z,95325.00
2023-05-04T11:05:41.183Z,95325.00
2023-05-04T11:06:42.175Z,95325.00
2023-05-04T11:07:41.268Z,95323.00
2023-05-04T11:08:41.249Z,95321.00
2023-05-04T11:09:41.110Z,95321.00
2023-05-04T11:10:41.096Z,95323.00
2023-05-04T11:11:41.100Z,95319.00
2023-05-04T11:12:40.164Z,95318.00
2023-05-04T11:13:41.277Z,95314.00
2023-05-04T11:14:41.012Z,95314.00
2023-05-04T11:15:40.989Z,95310.00
2023-05-04T11:16:41.018Z,95310.00
2023-05-04T11:17:40.956Z,95310.00
2023-05-04T11:18:41.280Z,95312.00
2023-05-04T11:19:40.910Z,95310.00
2023-05-04T11:20:40.907Z,95310.00
2023-05-04T11:21:40.937Z,95308.00
2023-05-04T11:22:40.886Z,95308.00
2023-05-04T11:23:41.284Z,95302.00
2023-05-04T11:24:40.839Z,95300.00
2023-05-04T11:25:40.780Z,95302.00
2023-05-04T11:26:40.764Z,95300.00
2023-05-04T11:27:40.744Z,95298.00
2023-05-04T11:28:40.737Z,95302.00
2023-05-04T11:29:40.741Z,95298.00
2023-05-04T11:30:40.686Z,95298.00
2023-05-04T11:31:40.727Z,95296.00
2023-05-04T11:32:40.699Z,95294.00
2023-05-04T11:33:40.788Z,95288.00
2023-05-04T11:34:40.619Z,95290.00
2023-05-04T11:35:40.607Z,95288.00
2023-05-04T11:36:40.598Z,95286.00
2023-05-04T11:37:40.630Z,95288.00
2023-05-04T11:38:40.558Z,95282.00
2023-05-04T11:39:40.742Z,95282.00
2023-05-04T11:40:40.554Z,95282.00
2023-05-04T11:41:40.529Z,95278.00
2023-05-04T11:42:40.537Z,95276.00
2023-05-04T11:43:40.541Z,95272.00
2023-05-04T11:44:41.553Z,95272.00
2023-05-04T11:45:40.600Z,95272.00
2023-05-04T11:46:40.675Z,95270.00